Time;durP1;ratioP1;P1;durP2;ratioP2;P2;SDS_P1;SDS_P2;PMS_P1;PMS_P2;Temp;Humidity;BMP_temperature;BMP_pressure;BME280_temperature;BME280_humidity;BME280_pressure;Samples;Min_cycle;Max_cycle;Signal;HPM_P1;HPM_P2
2022/07/03 13:52:12;;;;;;;6.63;2.05;;;17.40;83.70;;;;;;5923136;22;7608111;-78
2022/07/03 13:54:39;;;;;;;3.45;1.45;;;17.40;83.20;;;;;;6217189;23;20004;-76
2022/07/03 13:57:06;;;;;;;5.80;2.05;;;17.40;82.70;;;;;;6210265;23;20031;-80
2022/07/03 13:59:35;;;;;;;7.85;3.33;;;17.40;82.50;;;;;;6211225;23;20009;-79
2022/07/03 14:02:02;;;;;;;6.82;1.77;;;17.40;82.50;;;;;;6209685;23;20071;-79
2022/07/03 14:04:28;;;;;;;4.88;1.52;;;17.40;82.20;;;;;;6211035;23;20040;-79
2022/07/03 14:06:55;;;;;;;5.10;1.90;;;17.40;81.90;;;;;;6209305;23;20005;-74
2022/07/03 14:09:22;;;;;;;7.20;2.55;;;17.40;81.60;;;;;;6211044;23;20297;-75
2022/07/03 14:11:49;;;;;;;5.95;1.90;;;17.40;81.40;;;;;;6210761;23;20047;-77
2022/07/03 14:14:16;;;;;;;7.22;2.10;;;17.40;81.40;;;;;;6210443;23;20068;-79
2022/07/03 14:16:43;;;;;;;4.68;1.77;;;17.40;81.30;;;;;;6211116;23;20036;-70
2022/07/03 14:19:09;;;;;;;6.60;2.28;;;17.40;81.30;;;;;;6210378;23;20004;-78
2022/07/03 14:21:36;;;;;;;9.40;2.65;;;17.30;81.30;;;;;;6210763;23;20075;-72
2022/07/03 14:24:02;;;;;;;6.90;2.22;;;17.30;81.40;;;;;;6209495;23;20116;-70
2022/07/03 14:34:43;;;;;;;4.15;1.52;;;17.30;82.70;;;;;;6211985;23;20011;-77
2022/07/03 14:37:10;;;;;;;7.40;1.58;;;17.30;82.70;;;;;;6209033;23;20092;-75
2022/07/03 14:39:36;;;;;;;5.53;2.17;;;17.20;82.60;;;;;;6210967;23;20001;-77
2022/07/03 14:42:03;;;;;;;6.32;1.80;;;17.20;82.30;;;;;;6210106;23;20000;-78
2022/07/03 14:44:30;;;;;;;3.53;1.40;;;17.20;82.20;;;;;;6210666;23;20001;-77
2022/07/03 14:46:56;;;;;;;11.27;1.90;;;17.10;82.10;;;;;;6208665;23;20435;-73
2022/07/03 14:49:23;;;;;;;8.95;2.22;;;17.10;82.10;;;;;;6208899;23;20172;-76
2022/07/03 14:51:51;;;;;;;7.40;2.13;;;17.10;82.20;;;;;;6227484;23;20039;-72
2022/07/03 14:54:19;;;;;;;5.18;1.98;;;17.10;82.40;;;;;;6241586;23;20000;-77
2022/07/03 14:56:57;;;;;;;9.13;2.22;;;17.00;82.60;;;;;;6242912;23;20011;-69
2022/07/03 14:59:42;;;;;;;11.20;1.98;;;17.00;82.70;;;;;;6241717;23;20515;-75
2022/07/03 15:02:22;;;;;;;12.30;3.50;;;17.00;83.00;;;;;;6242139;23;20003;-78
2022/07/03 15:05:12;;;;;;;3.80;1.88;;;16.90;83.10;;;;;;6242808;23;19996;-70
2022/07/03 15:07:49;;;;;;;5.40;2.92;;;16.90;83.20;;;;;;6241549;23;20000;-77
2022/07/03 15:10:15;;;;;;;5.03;2.80;;;16.90;83.20;;;;;;6242746;23;20339;-72
2022/07/03 15:12:46;;;;;;;6.97;1.58;;;16.90;83.10;;;;;;6242140;23;20031;-81
2022/07/03 15:15:15;;;;;;;7.53;2.95;;;16.80;83.00;;;;;;6242145;23;21098;-73
2022/07/03 15:17:42;;;;;;;16.48;4.10;;;16.80;82.80;;;;;;6243009;23;20007;-73
2022/07/03 15:20:13;;;;;;;13.07;3.28;;;16.80;82.80;;;;;;6214543;23;20050;-76
2022/07/03 15:22:42;;;;;;;17.25;3.00;;;16.80;83.00;;;;;;6242644;23;20096;-72
2022/07/03 15:25:33;;;;;;;37.08;5.07;;;16.70;83.60;;;;;;6241400;23;20003;-73
2022/07/03 15:28:00;;;;;;;21.25;3.30;;;16.70;84.10;;;;;;6241531;22;20105;-70
2022/07/03 15:30:27;;;;;;;8.50;2.83;;;16.70;84.50;;;;;;6242222;23;20035;-80
2022/07/03 15:32:58;;;;;;;7.40;2.40;;;16.70;84.90;;;;;;6241450;23;19999;-78
2022/07/03 15:35:25;;;;;;;12.63;2.63;;;16.70;85.10;;;;;;6215645;23;20005;-71
2022/07/03 15:37:57;;;;;;;16.42;4.10;;;16.70;85.40;;;;;;6241408;23;20011;-76
2022/07/03 15:40:35;;;;;;;17.30;2.92;;;16.70;85.30;;;;;;6215985;23;20004;-76
2022/07/03 15:43:11;;;;;;;8.77;2.88;;;16.70;85.30;;;;;;6241539;23;20046;-80
2022/07/03 15:45:49;;;;;;;9.60;2.47;;;16.60;85.20;;;;;;6242474;23;20378;-79
2022/07/03 15:48:48;;;;;;;13.82;3.15;;;16.70;85.30;;;;;;6243575;23;20354;-75
2022/07/03 15:51:32;;;;;;;6.43;1.70;;;16.70;86.00;;;;;;6243627;23;20023;-82
2022/07/03 15:54:00;;;;;;;10.25;2.83;;;16.70;86.20;;;;;;6244881;23;20004;-76
2022/07/03 15:56:36;;;;;;;11.52;2.33;;;16.70;86.10;;;;;;6242431;23;20000;-80
2022/07/03 15:59:10;;;;;;;4.85;1.90;;;16.70;85.90;;;;;;6242739;23;20006;-72
2022/07/03 16:02:12;;;;;;;13.93;4.97;;;16.70;85.70;;;;;;6243714;23;20003;-76
2022/07/03 16:05:03;;;;;;;18.52;4.50;;;16.70;85.80;;;;;;6242392;23;20008;-79
2022/07/03 16:07:34;;;;;;;20.38;4.82;;;16.70;86.20;;;;;;6242985;23;20007;-78
2022/07/03 16:10:02;;;;;;;19.15;5.20;;;16.70;86.60;;;;;;6243826;23;20006;-71
2022/07/03 19:22:44;;;;;;;8.20;1.83;;;16.10;86.00;;;;;;6220559;23;20020;-77
2022/07/03 19:25:10;;;;;;;8.35;2.05;;;16.10;86.10;;;;;;6220526;23;20400;-75
2022/07/03 19:27:39;;;;;;;4.43;1.80;;;16.10;87.00;;;;;;6220070;23;20001;-78
2022/07/03 19:30:06;;;;;;;12.63;2.40;;;16.10;86.60;;;;;;6219318;23;20059;-74
2022/07/03 19:32:33;;;;;;;8.05;2.03;;;16.10;86.50;;;;;;6219904;23;20040;-83
2022/07/03 19:34:59;;;;;;;9.20;1.92;;;16.10;86.70;;;;;;6220849;23;20082;-80
2022/07/03 19:37:26;;;;;;;2.88;1.63;;;16.10;86.70;;;;;;6217518;23;20296;-77
2022/07/03 19:40:05;;;;;;;3.22;2.15;;;16.10;86.70;;;;;;6221704;23;20007;-76
2022/07/03 19:43:12;;;;;;;4.68;2.05;;;16.10;86.70;;;;;;6219957;23;20008;-81
2022/07/03 19:46:18;;;;;;;5.25;1.95;;;16.10;86.60;;;;;;6218335;23;20415;-84
2022/07/03 19:48:45;;;;;;;4.43;2.65;;;16.10;86.50;;;;;;6220271;23;20000;-82
2022/07/03 19:51:11;;;;;;;4.72;1.63;;;16.10;86.50;;;;;;6218329;23;20028;-81
2022/07/03 19:53:38;;;;;;;12.05;1.88;;;16.10;86.30;;;;;;6217177;23;20001;-77
2022/07/03 19:56:04;;;;;;;6.07;2.15;;;16.00;86.20;;;;;;6213645;23;20063;-81
2022/07/03 19:58:31;;;;;;;4.75;1.85;;;16.00;86.40;;;;;;6212362;23;20005;-76
2022/07/03 20:00:58;;;;;;;4.60;1.35;;;16.00;86.50;;;;;;6212640;23;20032;-80
2022/07/03 20:03:25;;;;;;;8.20;1.45;;;16.00;86.60;;;;;;6211343;23;20033;-77
2022/07/03 20:05:52;;;;;;;2.08;1.23;;;16.00;86.50;;;;;;6212234;23;20080;-80
2022/07/03 20:08:18;;;;;;;6.43;1.70;;;16.00;86.60;;;;;;6209964;23;20455;-75
2022/07/03 20:10:45;;;;;;;4.65;1.95;;;16.00;86.60;;;;;;6210032;23;20005;-78
2022/07/03 20:13:12;;;;;;;4.45;1.30;;;16.00;86.60;;;;;;6212266;23;20050;-75
2022/07/03 20:15:38;;;;;;;3.45;1.15;;;16.00;86.50;;;;;;6211094;23;19997;-79
2022/07/03 20:18:54;;;;;;;3.60;1.50;;;16.00;86.40;;;;;;6211644;23;20000;-78
2022/07/03 20:21:22;;;;;;;3.67;1.42;;;16.00;86.40;;;;;;6209714;23;20482;-79
2022/07/03 20:27:01;;;;;;;;;;;15.90;86.20;;;;;;6214140;23;20050;-77
2022/07/03 20:29:29;;;;;;;12.43;2.55;;;15.90;86.30;;;;;;6212080;23;19900;-78
2022/07/03 20:31:56;;;;;;;2.95;1.95;;;15.90;86.30;;;;;;6212476;23;20004;-75
2022/07/03 20:34:23;;;;;;;3.80;1.30;;;15.90;86.30;;;;;;6211523;23;19996;-79
2022/07/03 20:36:54;;;;;;;3.45;0.90;;;15.90;86.30;;;;;;6212873;23;20012;-80
2022/07/03 20:39:23;;;;;;;6.35;1.58;;;15.90;86.30;;;;;;6210254;23;20055;-71
2022/07/03 20:41:58;;;;;;;4.00;1.08;;;15.90;86.30;;;;;;6211752;23;20019;-75
2022/07/03 20:44:35;;;;;;;8.20;1.75;;;15.80;86.20;;;;;;6210467;23;20024;-74
2022/07/03 20:47:08;;;;;;;5.30;0.98;;;15.80;86.20;;;;;;6211602;23;20005;-79
2022/07/03 20:49:44;;;;;;;5.53;1.02;;;15.80;86.30;;;;;;6213777;23;20613;-75
2022/07/03 20:52:15;;;;;;;3.25;0.80;;;15.80;86.50;;;;;;6215826;23;20008;-83
2022/07/03 20:55:28;;;;;;;2.90;0.95;;;15.80;86.50;;;;;;6213873;23;20051;-77
2022/07/03 20:57:37;;;;;;;2.58;0.85;;;15.80;86.50;;;;;;6202877;23;20012;-77
2022/07/03 21:00:04;;;;;;;3.88;1.27;;;15.80;86.50;;;;;;6212136;23;20040;-76
2022/07/03 21:02:32;;;;;;;4.15;1.30;;;15.80;86.40;;;;;;6213155;23;20059;-75
2022/07/03 21:04:59;;;;;;;2.13;0.77;;;15.80;86.30;;;;;;6209942;23;20063;-76
2022/07/03 21:07:25;;;;;;;3.13;1.00;;;15.70;86.30;;;;;;6210043;23;20336;-74
2022/07/03 21:10:01;;;;;;;1.67;0.68;;;15.70;86.30;;;;;;6210848;23;20000;-75
2022/07/03 21:13:11;;;;;;;8.80;1.60;;;15.70;86.30;;;;;;6212543;23;19992;-75
2022/07/03 21:15:42;;;;;;;2.50;1.33;;;15.70;86.30;;;;;;6210595;23;20008;-76
2022/07/03 21:18:09;;;;;;;3.33;1.23;;;15.70;86.50;;;;;;6211357;23;20004;-75
2022/07/03 21:20:35;;;;;;;7.25;1.80;;;15.70;86.30;;;;;;6212781;23;20008;-77
2022/07/03 21:23:02;;;;;;;3.28;1.40;;;15.70;86.40;;;;;;6210080;23;20017;-72
2022/07/03 21:25:31;;;;;;;2.42;1.15;;;15.70;86.40;;;;;;6211065;23;20032;-77
2022/07/03 21:27:58;;;;;;;1.27;0.80;;;15.70;86.50;;;;;;6211823;23;20028;-77
2022/07/03 21:30:24;;;;;;;1.48;0.77;;;15.70;86.60;;;;;;6212843;23;19996;-78
2022/07/03 21:32:51;;;;;;;9.40;1.15;;;15.70;87.00;;;;;;6212179;23;20074;-78
2022/07/03 21:35:17;;;;;;;6.40;1.00;;;15.70;86.50;;;;;;6211640;23;20004;-78
2022/07/03 21:37:44;;;;;;;3.20;1.00;;;15.60;86.50;;;;;;6213485;23;20011;-76
2022/07/03 21:40:11;;;;;;;2.38;0.88;;;15.60;86.60;;;;;;6211537;23;19992;-78
2022/07/03 21:42:37;;;;;;;7.90;0.60;;;15.60;86.60;;;;;;6213002;23;20020;-76
2022/07/03 21:45:04;;;;;;;3.05;0.80;;;15.60;86.70;;;;;;6211787;23;20001;-74
2022/07/03 21:47:31;;;;;;;3.53;0.82;;;15.60;86.70;;;;;;6212517;23;19997;-78
2022/07/03 21:50:01;;;;;;;4.63;1.05;;;15.60;86.60;;;;;;6208538;23;20008;-75
2022/07/03 21:52:27;;;;;;;1.73;0.80;;;15.60;86.70;;;;;;6210948;23;20017;-74
2022/07/03 21:54:54;;;;;;;7.35;1.48;;;15.60;86.60;;;;;;6212248;23;19996;-76
2022/07/03 21:57:20;;;;;;;3.08;1.70;;;15.60;86.60;;;;;;6212925;23;20028;-76
2022/07/03 21:59:47;;;;;;;2.63;0.50;;;15.60;86.60;;;;;;6213268;23;20000;-77
2022/07/03 22:02:14;;;;;;;3.70;0.70;;;15.60;86.60;;;;;;6211969;23;20012;-77
2022/07/03 22:04:40;;;;;;;4.00;1.10;;;15.60;86.50;;;;;;6213700;23;20011;-80
2022/07/03 22:07:07;;;;;;;5.35;1.58;;;15.60;86.60;;;;;;6211758;23;20007;-77
2022/07/03 22:09:43;;;;;;;2.03;1.20;;;15.60;86.60;;;;;;6212611;23;20047;-74
2022/07/03 22:14:56;;;;;;;2.55;1.00;;;15.60;86.80;;;;;;6211512;23;20015;-73
2022/07/03 22:17:23;;;;;;;3.97;1.20;;;15.60;86.80;;;;;;6210655;23;20005;-72
2022/07/03 22:19:49;;;;;;;1.23;1.13;;;15.60;86.90;;;;;;6211143;23;19993;-75
2022/07/03 22:22:16;;;;;;;3.03;1.20;;;15.60;87.00;;;;;;6212163;23;20019;-77
2022/07/03 22:24:42;;;;;;;14.00;1.55;;;15.60;87.00;;;;;;6211180;23;20083;-75
2022/07/03 22:27:09;;;;;;;5.95;1.20;;;15.60;87.00;;;;;;6212480;23;20428;-76
2022/07/03 22:29:36;;;;;;;3.75;2.47;;;15.60;87.30;;;;;;6211454;23;20341;-73
2022/07/03 22:32:03;;;;;;;5.28;1.20;;;15.60;87.30;;;;;;6210721;23;20104;-74
2022/07/03 22:34:30;;;;;;;1.77;0.88;;;15.60;87.20;;;;;;6212131;23;20367;-75
2022/07/03 22:36:56;;;;;;;2.35;1.20;;;15.60;87.10;;;;;;6211616;23;20008;-77
2022/07/03 22:39:25;;;;;;;0.70;0.60;;;15.50;87.00;;;;;;6212505;23;20432;-74
2022/07/03 22:41:56;;;;;;;1.95;0.95;;;15.50;87.10;;;;;;6210966;23;20013;-75
2022/07/03 22:44:23;;;;;;;3.30;1.15;;;15.50;87.10;;;;;;6212327;23;19997;-78
2022/07/03 22:46:50;;;;;;;1.10;0.88;;;15.50;87.10;;;;;;6211329;23;20000;-76
2022/07/03 22:49:17;;;;;;;3.47;1.00;;;15.50;87.20;;;;;;6212271;23;20067;-77
2022/07/03 22:51:44;;;;;;;1.63;0.80;;;15.50;87.40;;;;;;6211867;23;19997;-77
2022/07/03 22:54:11;;;;;;;4.72;1.00;;;15.50;87.50;;;;;;6211636;23;20058;-77
2022/07/03 22:56:39;;;;;;;3.33;0.90;;;15.50;87.60;;;;;;6212523;23;20001;-77
2022/07/03 22:59:06;;;;;;;1.48;0.90;;;15.50;87.60;;;;;;6211188;23;19997;-77
2022/07/03 23:01:35;;;;;;;5.65;1.52;;;15.50;87.60;;;;;;6212590;23;20087;-77
2022/07/03 23:04:01;;;;;;;2.45;0.90;;;15.50;87.60;;;;;;6211090;23;20011;-76
2022/07/03 23:06:28;;;;;;;7.13;1.42;;;15.40;87.60;;;;;;6212304;23;20432;-78
2022/07/03 23:08:55;;;;;;;1.80;1.30;;;15.40;87.60;;;;;;6211645;23;20005;-77
2022/07/03 23:11:21;;;;;;;3.50;1.42;;;15.50;87.60;;;;;;6211592;23;20368;-78
2022/07/03 23:13:48;;;;;;;2.42;1.23;;;15.40;87.50;;;;;;6212371;23;19996;-77
2022/07/03 23:16:14;;;;;;;4.50;1.20;;;15.40;87.50;;;;;;6211084;23;19996;-78
2022/07/03 23:18:41;;;;;;;2.88;1.17;;;15.40;87.50;;;;;;6212316;23;20007;-77
2022/07/03 23:21:07;;;;;;;1.08;0.82;;;15.40;87.50;;;;;;6210705;23;20067;-75
2022/07/03 23:23:34;;;;;;;2.15;1.00;;;15.40;87.40;;;;;;6212142;23;20091;-75
2022/07/03 23:26:01;;;;;;;1.52;0.90;;;15.40;87.40;;;;;;6211163;23;19992;-77
2022/07/03 23:28:27;;;;;;;3.22;0.77;;;15.40;87.20;;;;;;6212245;23;20001;-75
2022/07/03 23:30:54;;;;;;;3.08;1.05;;;15.40;87.20;;;;;;6213917;23;20004;-78
2022/07/03 23:33:20;;;;;;;1.80;0.75;;;15.40;87.00;;;;;;6213247;23;20001;-77
2022/07/03 23:35:47;;;;;;;5.95;1.00;;;15.30;87.00;;;;;;6214064;23;20000;-78
2022/07/03 23:38:13;;;;;;;1.40;0.75;;;15.30;87.30;;;;;;6212806;23;20001;-73
2022/07/03 23:40:40;;;;;;;1.75;0.57;;;15.30;87.40;;;;;;6213888;23;20005;-78
2022/07/03 23:43:06;;;;;;;5.82;1.02;;;15.30;87.40;;;;;;6212598;23;20080;-76
2022/07/03 23:45:33;;;;;;;0.70;0.52;;;15.30;87.30;;;;;;6213912;23;20004;-76
2022/07/03 23:47:59;;;;;;;1.02;0.60;;;15.30;87.40;;;;;;6213521;23;20000;-75
2022/07/03 23:50:34;;;;;;;1.73;1.00;;;15.30;87.90;;;;;;6213310;23;20447;-77
2022/07/03 23:53:08;;;;;;;2.10;0.50;;;15.30;87.20;;;;;;6213994;23;20001;-76
2022/07/03 23:55:36;;;;;;;3.50;0.70;;;15.30;87.10;;;;;;6212499;23;20004;-73
2022/07/03 23:58:03;;;;;;;5.15;0.77;;;15.30;87.10;;;;;;6212184;23;20535;-76
